Time;durP1;ratioP1;P1;durP2;ratioP2;P2;SDS_P1;SDS_P2;PMS_P1;PMS_P2;Temp;Humidity;BMP_temperature;BMP_pressure;BME280_temperature;BME280_humidity;BME280_pressure;Samples;Min_cycle;Max_cycle;Signal;HPM_P1;HPM_P2
2022/06/14 00:03:13;;;;;;;15.77;2.85;;;;;;;;;;4967133;28;20061;-71
2022/06/14 00:05:40;;;;;;;12.60;2.45;;;;;;;;;;4969924;28;20421;-71
2022/06/14 00:08:07;;;;;;;12.90;2.40;;;;;;;;;;4972031;28;20054;-71
2022/06/14 00:10:34;;;;;;;12.65;2.72;;;;;;;;;;4974598;28;20104;-71
2022/06/14 00:13:02;;;;;;;11.48;2.75;;;;;;;;;;4968383;28;20054;-71
2022/06/14 00:15:30;;;;;;;12.43;2.63;;;;;;;;;;4971007;28;20054;-71
2022/06/14 00:17:57;;;;;;;14.52;2.58;;;;;;;;;;4971683;28;20109;-71
2022/06/14 00:20:25;;;;;;;12.90;2.40;;;;;;;;;;4969271;28;20049;-71
2022/06/14 00:22:52;;;;;;;14.60;3.22;;;;;;;;;;4970931;28;20062;-71
2022/06/14 00:25:23;;;;;;;12.73;2.42;;;;;;;;;;4971606;28;20457;-71
2022/06/14 00:27:51;;;;;;;14.80;2.33;;;;;;;;;;4972808;28;20173;-71
2022/06/14 00:30:18;;;;;;;15.45;2.70;;;;;;;;;;4968169;28;20497;-71
2022/06/14 00:32:46;;;;;;;9.88;2.38;;;;;;;;;;4970850;28;20492;-71
2022/06/14 00:35:14;;;;;;;11.23;2.70;;;;;;;;;;4968379;28;20057;-71
2022/06/14 00:37:41;;;;;;;14.70;2.95;;;;;;;;;;4971627;28;20063;-71
2022/06/14 00:40:10;;;;;;;14.18;2.90;;;;;;;;;;4971019;28;20101;-71
2022/06/14 00:42:37;;;;;;;13.73;2.85;;;;;;;;;;4971079;28;20054;-71
2022/06/14 00:45:06;;;;;;;13.48;2.70;;;;;;;;;;4971916;28;20398;-71
2022/06/14 00:47:35;;;;;;;10.02;2.40;;;;;;;;;;4970365;28;20453;-71
2022/06/14 00:50:05;;;;;;;8.93;2.05;;;;;;;;;;4971516;28;20050;-71
2022/06/14 00:52:34;;;;;;;10.88;2.70;;;;;;;;;;4970841;28;20112;-71
2022/06/14 00:55:03;;;;;;;13.88;2.60;;;;;;;;;;4969699;28;20149;-71
2022/06/14 00:57:33;;;;;;;14.68;3.08;;;;;;;;;;4970782;28;20113;-71
2022/06/14 01:00:04;;;;;;;14.45;2.65;;;;;;;;;;4969232;28;20100;-71
2022/06/14 01:02:35;;;;;;;15.52;3.05;;;;;;;;;;4969992;28;20054;-72
2022/06/14 01:05:05;;;;;;;11.63;3.30;;;;;;;;;;4971453;28;20053;-72
2022/06/14 01:07:33;;;;;;;14.25;2.65;;;;;;;;;;4966752;28;20054;-72
2022/06/14 01:10:03;;;;;;;14.35;2.42;;;;;;;;;;4971506;28;20058;-72
2022/06/14 01:12:32;;;;;;;10.35;2.22;;;;;;;;;;4969726;28;20117;-72
2022/06/14 01:15:03;;;;;;;14.88;2.50;;;;;;;;;;4973548;28;20065;-72
2022/06/14 01:17:30;;;;;;;14.07;2.83;;;;;;;;;;4972033;28;20050;-72
2022/06/14 01:19:58;;;;;;;11.88;2.47;;;;;;;;;;4972456;28;20113;-72
2022/06/14 01:22:28;;;;;;;12.48;3.13;;;;;;;;;;4969226;28;20108;-71
2022/06/14 01:24:55;;;;;;;10.38;2.40;;;;;;;;;;4969047;28;20050;-71
2022/06/14 01:27:23;;;;;;;10.13;2.67;;;;;;;;;;4973240;28;20054;-71
2022/06/14 01:29:56;;;;;;;14.07;2.60;;;;;;;;;;4971328;28;20050;-71
2022/06/14 01:32:25;;;;;;;14.05;2.42;;;;;;;;;;4968211;28;20140;-71
2022/06/14 01:34:54;;;;;;;15.60;2.72;;;;;;;;;;4967585;28;20054;-72
2022/06/14 01:37:22;;;;;;;16.15;3.08;;;;;;;;;;4969837;28;20168;-72
2022/06/14 01:39:51;;;;;;;12.50;2.60;;;;;;;;;;4968775;28;20046;-72
2022/06/14 01:42:24;;;;;;;13.07;2.83;;;;;;;;;;4969214;28;20501;-72
2022/06/14 01:44:57;;;;;;;15.98;3.15;;;;;;;;;;4974594;28;20069;-72
2022/06/14 01:47:26;;;;;;;12.77;3.05;;;;;;;;;;4970402;28;20101;-71
2022/06/14 01:52:53;;;;;;;17.60;2.88;;;;;;;;;;4968776;28;20061;-72
2022/06/14 01:55:27;;;;;;;17.45;3.08;;;;;;;;;;4970420;28;20505;-72
2022/06/14 01:57:54;;;;;;;;;;;;;;;;;;4969790;28;20433;-72
2022/06/14 02:00:24;;;;;;;11.48;2.42;;;;;;;;;;4970254;28;19925;-72
2022/06/14 02:04:36;;;;;;;7.82;2.20;;;;;;;;;;4972161;28;20097;-72
2022/06/14 02:05:45;;;;;;;13.18;2.85;;;;;;;;;;4969279;28;20106;-72
2022/06/14 02:08:15;;;;;;;15.25;2.80;;;;;;;;;;4966729;28;20042;-72
2022/06/14 02:10:45;;;;;;;20.35;3.10;;;;;;;;;;4968010;28;20050;-72
2022/06/14 02:13:15;;;;;;;14.25;3.00;;;;;;;;;;4970378;28;20051;-72
2022/06/14 02:15:44;;;;;;;13.98;3.13;;;;;;;;;;4968743;28;20499;-72
2022/06/14 02:18:14;;;;;;;16.60;2.22;;;;;;;;;;4968940;28;20125;-72
2022/06/14 02:20:45;;;;;;;11.20;3.00;;;;;;;;;;4970758;28;20852;-71
2022/06/14 02:23:14;;;;;;;16.45;3.03;;;;;;;;;;4965442;28;20128;-71
2022/06/14 02:25:45;;;;;;;15.18;3.08;;;;;;;;;;4971357;28;20050;-71
2022/06/14 02:28:17;;;;;;;10.90;3.08;;;;;;;;;;4968949;28;20062;-71
2022/06/14 02:30:47;;;;;;;14.15;3.03;;;;;;;;;;4970747;28;20053;-72
2022/06/14 02:33:19;;;;;;;11.77;2.50;;;;;;;;;;4969477;28;20609;-72
2022/06/14 02:35:49;;;;;;;14.48;2.50;;;;;;;;;;4967289;28;20054;-72
2022/06/14 02:38:18;;;;;;;12.93;2.15;;;;;;;;;;4968420;28;20463;-71
2022/06/14 02:40:48;;;;;;;17.42;2.97;;;;;;;;;;4986894;28;20046;-71
2022/06/14 02:43:18;;;;;;;15.65;2.97;;;;;;;;;;4967903;28;20116;-71
2022/06/14 02:45:48;;;;;;;15.95;2.42;;;;;;;;;;4965848;28;20892;-72
2022/06/14 02:48:18;;;;;;;12.65;2.97;;;;;;;;;;4971842;28;20116;-72
2022/06/14 02:50:47;;;;;;;14.68;2.67;;;;;;;;;;4963717;28;20121;-72
2022/06/14 02:53:17;;;;;;;11.13;2.30;;;;;;;;;;4968802;28;20054;-72
2022/06/14 02:55:46;;;;;;;11.18;2.28;;;;;;;;;;4967280;28;20129;-72
2022/06/14 02:58:15;;;;;;;11.35;2.08;;;;;;;;;;4965285;28;20429;-72
2022/06/14 03:00:45;;;;;;;10.98;2.33;;;;;;;;;;4965714;28;20449;-72
2022/06/14 03:03:14;;;;;;;12.98;2.70;;;;;;;;;;4969024;28;20391;-72
2022/06/14 03:05:45;;;;;;;16.55;3.03;;;;;;;;;;4967658;28;20061;-72
2022/06/14 03:08:14;;;;;;;8.98;2.25;;;;;;;;;;4968393;28;20058;-72
2022/06/14 03:10:46;;;;;;;11.30;2.33;;;;;;;;;;4969298;28;20138;-72
2022/06/14 03:13:20;;;;;;;12.40;3.00;;;;;;;;;;4970330;28;20444;-72
2022/06/14 03:15:50;;;;;;;8.45;2.55;;;;;;;;;;4966326;28;20666;-72
2022/06/14 03:18:21;;;;;;;12.00;2.72;;;;;;;;;;4968923;28;20057;-72
2022/06/14 03:20:52;;;;;;;17.80;2.75;;;;;;;;;;4965637;28;20431;-72
2022/06/14 03:23:22;;;;;;;13.90;3.38;;;;;;;;;;4968180;28;20053;-72
2022/06/14 03:25:51;;;;;;;10.75;2.70;;;;;;;;;;4971123;28;20136;-72
2022/06/14 03:28:22;;;;;;;12.82;3.17;;;;;;;;;;4962797;28;20098;-72
2022/06/14 03:30:53;;;;;;;15.68;3.00;;;;;;;;;;4967920;28;20054;-72
2022/06/14 03:33:23;;;;;;;15.50;3.00;;;;;;;;;;4965485;28;20054;-72
2022/06/14 03:35:52;;;;;;;19.27;3.80;;;;;;;;;;4967383;28;20542;-72
2022/06/14 03:38:21;;;;;;;13.40;3.13;;;;;;;;;;4969232;28;20067;-72
2022/06/14 03:40:51;;;;;;;11.30;2.88;;;;;;;;;;4968024;28;20529;-72
2022/06/14 03:43:18;;;;;;;12.43;3.45;;;;;;;;;;4965454;28;20057;-72
2022/06/14 03:45:50;;;;;;;11.98;3.33;;;;;;;;;;4971016;28;20108;-72
2022/06/14 03:48:19;;;;;;;15.30;3.28;;;;;;;;;;4966720;28;20434;-72
2022/06/14 03:50:54;;;;;;;9.13;3.28;;;;;;;;;;4972257;28;20065;-72
2022/06/14 03:53:33;;;;;;;8.88;2.78;;;;;;;;;;4972043;28;20093;-72
2022/06/14 03:56:09;;;;;;;12.90;3.47;;;;;;;;;;4967323;28;20109;-72
2022/06/14 03:58:49;;;;;;;13.40;3.28;;;;;;;;;;4973008;28;20131;-72
2022/06/14 04:01:18;;;;;;;10.65;3.50;;;;;;;;;;4966910;28;20113;-72
2022/06/14 04:03:54;;;;;;;6.93;3.58;;;;;;;;;;4970691;28;20046;-72
2022/06/14 04:06:30;;;;;;;17.63;3.47;;;;;;;;;;4971038;28;20046;-72
2022/06/14 04:09:00;;;;;;;14.80;3.90;;;;;;;;;;4971865;28;20105;-72
2022/06/14 04:11:33;;;;;;;14.27;4.32;;;;;;;;;;4971940;28;21146;-72
2022/06/14 04:14:06;;;;;;;10.82;3.15;;;;;;;;;;4972715;28;20050;-72
2022/06/14 04:16:36;;;;;;;9.65;3.50;;;;;;;;;;4970931;28;20448;-72
2022/06/14 04:19:09;;;;;;;14.65;3.75;;;;;;;;;;4968618;28;20149;-72
2022/06/14 04:21:44;;;;;;;16.95;4.22;;;;;;;;;;4972780;28;20099;-72
2022/06/14 04:24:17;;;;;;;9.52;3.22;;;;;;;;;;4968587;28;20508;-72
2022/06/14 04:26:47;;;;;;;20.00;4.63;;;;;;;;;;4978262;28;20046;-72
2022/06/14 04:29:18;;;;;;;13.40;3.80;;;;;;;;;;4972296;28;20356;-72
2022/06/14 04:31:48;;;;;;;9.88;3.30;;;;;;;;;;4969272;28;20046;-72
2022/06/14 04:34:19;;;;;;;14.48;3.88;;;;;;;;;;4971074;28;20148;-72
2022/06/14 04:36:54;;;;;;;14.30;3.88;;;;;;;;;;4966798;28;20073;-72
2022/06/14 04:39:25;;;;;;;9.35;4.18;;;;;;;;;;4970239;28;20050;-72
2022/06/14 04:41:55;;;;;;;11.38;3.45;;;;;;;;;;4963718;28;20610;-72
2022/06/14 04:44:26;;;;;;;13.75;3.90;;;;;;;;;;4968506;28;20097;-72
2022/06/14 04:46:55;;;;;;;8.73;3.60;;;;;;;;;;4970866;28;20725;-72
2022/06/14 04:49:26;;;;;;;10.80;3.63;;;;;;;;;;4971019;28;20791;-72
2022/06/14 04:51:55;;;;;;;13.52;3.60;;;;;;;;;;4970561;28;20050;-72
2022/06/14 04:54:24;;;;;;;14.93;4.07;;;;;;;;;;4978929;28;20053;-72
2022/06/14 04:56:54;;;;;;;11.07;3.65;;;;;;;;;;4969622;28;20050;-72
2022/06/14 04:59:23;;;;;;;12.23;3.42;;;;;;;;;;4971136;28;20154;-72
2022/06/14 05:01:52;;;;;;;11.48;3.80;;;;;;;;;;4962625;28;20105;-72
2022/06/14 05:04:22;;;;;;;12.77;3.90;;;;;;;;;;4959821;28;20413;-72
2022/06/14 05:06:52;;;;;;;11.30;3.53;;;;;;;;;;4968084;28;20057;-72
2022/06/14 05:09:22;;;;;;;13.35;3.92;;;;;;;;;;4964252;28;20073;-72
2022/06/14 05:11:53;;;;;;;10.40;3.38;;;;;;;;;;4966588;28;20533;-72
2022/06/14 05:14:21;;;;;;;12.45;3.90;;;;;;;;;;4969728;28;20050;-72
2022/06/14 05:16:51;;;;;;;13.50;3.53;;;;;;;;;;4963141;28;20054;-72
2022/06/14 05:19:20;;;;;;;8.93;3.10;;;;;;;;;;4970058;28;20054;-72
2022/06/14 05:21:50;;;;;;;14.80;3.58;;;;;;;;;;4958506;28;20105;-72
2022/06/14 05:24:20;;;;;;;14.48;4.25;;;;;;;;;;4964375;28;20504;-72
2022/06/14 05:27:09;;;;;;;10.95;4.07;;;;;;;;;;4962686;28;20516;-72
2022/06/14 05:29:40;;;;;;;9.45;3.70;;;;;;;;;;4965935;28;20050;-72
2022/06/14 05:32:12;;;;;;;13.05;3.42;;;;;;;;;;4967684;28;20124;-71
2022/06/14 05:34:44;;;;;;;17.92;3.67;;;;;;;;;;4965178;23;20138;-73
2022/06/14 05:37:16;;;;;;;10.48;3.10;;;;;;;;;;4958932;28;20050;-72
2022/06/14 05:39:46;;;;;;;10.60;3.42;;;;;;;;;;4945237;28;20058;-71
2022/06/14 05:42:16;;;;;;;12.60;3.42;;;;;;;;;;4935726;28;20101;-72
2022/06/14 05:44:45;;;;;;;12.43;3.25;;;;;;;;;;4945782;28;20449;-72
2022/06/14 05:47:15;;;;;;;17.58;3.65;;;;;;;;;;4944922;28;20059;-72
2022/06/14 05:49:45;;;;;;;12.55;3.10;;;;;;;;;;4942819;28;20054;-72
2022/06/14 05:52:15;;;;;;;8.82;3.50;;;;;;;;;;4943919;28;20055;-72
2022/06/14 05:54:46;;;;;;;8.70;3.30;;;;;;;;;;4947582;28;20054;-72
2022/06/14 05:57:18;;;;;;;10.60;3.05;;;;;;;;;;4946079;28;20053;-72
2022/06/14 05:59:48;;;;;;;13.82;3.35;;;;;;;;;;4950403;28;20055;-72
2022/06/14 06:02:18;;;;;;;7.97;2.55;;;;;;;;;;4949535;28;20043;-72
2022/06/14 06:04:48;;;;;;;11.55;2.92;;;;;;;;;;4949916;28;20050;-72
2022/06/14 06:07:18;;;;;;;8.77;2.60;;;;;;;;;;4945520;28;20059;-72
2022/06/14 06:09:48;;;;;;;13.07;3.03;;;;;;;;;;4946465;28;20058;-72
2022/06/14 06:12:20;;;;;;;8.32;2.38;;;;;;;;;;4944733;28;20055;-72
2022/06/14 06:14:50;;;;;;;7.85;2.50;;;;;;;;;;4938916;28;20059;-72
2022/06/14 06:17:18;;;;;;;8.30;2.22;;;;;;;;;;4922534;29;20134;-72
2022/06/14 06:19:49;;;;;;;10.10;2.85;;;;;;;;;;4924022;29;20548;-72
2022/06/14 06:22:17;;;;;;;6.53;2.00;;;;;;;;;;4921115;29;20130;-72
2022/06/14 06:24:48;;;;;;;9.82;2.17;;;;;;;;;;4920973;29;20059;-72
2022/06/14 06:27:16;;;;;;;5.10;1.63;;;;;;;;;;4923680;29;20398;-72
2022/06/14 06:29:48;;;;;;;8.27;2.38;;;;;;;;;;4923029;28;20715;-72
2022/06/14 06:32:16;;;;;;;5.93;1.85;;;;;;;;;;4923960;29;20561;-72
2022/06/14 06:34:44;;;;;;;6.72;1.92;;;;;;;;;;4922573;28;20067;-72
2022/06/14 06:37:13;;;;;;;7.93;1.70;;;;;;;;;;4922201;29;20044;-72
2022/06/14 06:39:50;;;;;;;6.80;2.00;;;;;;;;;;4923315;28;20047;-72
2022/06/14 06:42:21;;;;;;;5.28;1.67;;;;;;;;;;4923038;29;20051;-72
2022/06/14 06:44:54;;;;;;;8.25;1.75;;;;;;;;;;4923929;29;20079;-72
2022/06/14 06:47:24;;;;;;;12.38;2.60;;;;;;;;;;4922512;29;20051;-72
2022/06/14 06:49:55;;;;;;;10.68;1.90;;;;;;;;;;4918329;29;20499;-72
2022/06/14 06:52:24;;;;;;;8.77;1.60;;;;;;;;;;4923833;29;20047;-72
2022/06/14 06:54:55;;;;;;;5.95;1.60;;;;;;;;;;4922976;28;20062;-72
2022/06/14 06:57:23;;;;;;;6.65;1.80;;;;;;;;;;4923330;29;20433;-72
2022/06/14 06:59:53;;;;;;;8.80;1.83;;;;;;;;;;4922297;29;20495;-72
2022/06/14 07:02:23;;;;;;;8.05;1.90;;;;;;;;;;4922723;29;20055;-72
2022/06/14 07:05:07;;;;;;;8.23;1.58;;;;;;;;;;4923846;29;20141;-72
2022/06/14 07:07:45;;;;;;;8.23;1.50;;;;;;;;;;4923326;29;20118;-72
2022/06/14 07:10:18;;;;;;;5.22;1.65;;;;;;;;;;4923914;29;20686;-72
2022/06/14 07:12:46;;;;;;;6.05;1.70;;;;;;;;;;4929227;28;20048;-72
2022/06/14 07:15:17;;;;;;;4.97;1.58;;;;;;;;;;4930239;29;20090;-72
2022/06/14 07:17:48;;;;;;;8.38;1.70;;;;;;;;;;4928821;29;20474;-71
2022/06/14 07:20:18;;;;;;;7.57;1.52;;;;;;;;;;4930884;29;20055;-72
2022/06/14 07:22:47;;;;;;;10.63;2.35;;;;;;;;;;4929764;28;20482;-72
2022/06/14 07:25:19;;;;;;;7.38;1.45;;;;;;;;;;4930158;28;20094;-72
2022/06/14 07:27:50;;;;;;;7.10;1.80;;;;;;;;;;4920008;28;20063;-72
2022/06/14 07:30:21;;;;;;;7.30;1.60;;;;;;;;;;4922049;29;20056;-72
2022/06/14 07:32:49;;;;;;;9.27;1.65;;;;;;;;;;4921208;29;20059;-72
2022/06/14 07:35:16;;;;;;;5.63;1.58;;;;;;;;;;4937803;29;20054;-72
2022/06/14 07:37:45;;;;;;;3.80;1.35;;;;;;;;;;4923583;29;20728;-72
2022/06/14 07:40:15;;;;;;;5.32;1.35;;;;;;;;;;4922459;29;20146;-71
2022/06/14 07:42:45;;;;;;;7.88;1.67;;;;;;;;;;4922566;28;20145;-72
2022/06/14 07:45:16;;;;;;;6.15;1.75;;;;;;;;;;4921451;28;20059;-72
2022/06/14 07:47:47;;;;;;;8.45;1.70;;;;;;;;;;4919399;29;20054;-72
2022/06/14 07:50:16;;;;;;;7.80;1.75;;;;;;;;;;4923391;29;20122;-72
2022/06/14 07:52:46;;;;;;;11.48;2.50;;;;;;;;;;4922232;29;20090;-72
2022/06/14 07:55:16;;;;;;;4.18;1.40;;;;;;;;;;4920079;29;20159;-72
2022/06/14 07:57:45;;;;;;;6.72;1.45;;;;;;;;;;4922844;29;20059;-72
2022/06/14 08:03:03;;;;;;;8.85;1.67;;;;;;;;;;4919280;29;20161;-72
2022/06/14 08:05:33;;;;;;;6.80;1.83;;;;;;;;;;4920860;29;20134;-72
2022/06/14 08:08:03;;;;;;;5.63;1.70;;;;;;;;;;4922165;29;20395;-72
2022/06/14 08:10:34;;;;;;;5.03;1.60;;;;;;;;;;4922818;29;20070;-72
2022/06/14 08:13:04;;;;;;;6.88;1.30;;;;;;;;;;4924883;29;20056;-72
2022/06/14 08:15:33;;;;;;;5.93;1.13;;;;;;;;;;4926051;29;20404;-72
2022/06/14 08:18:03;;;;;;;4.72;1.10;;;;;;;;;;4924486;29;20110;-72
2022/06/14 08:20:33;;;;;;;5.75;1.45;;;;;;;;;;4924694;29;20142;-72
2022/06/14 08:23:02;;;;;;;3.80;1.23;;;;;;;;;;4918168;29;20118;-72
2022/06/14 08:25:31;;;;;;;9.43;1.67;;;;;;;;;;4923696;29;20055;-72
2022/06/14 08:28:02;;;;;;;4.55;1.48;;;;;;;;;;4919919;29;20062;-72
2022/06/14 08:30:32;;;;;;;4.75;1.30;;;;;;;;;;4922288;29;20062;-72
2022/06/14 08:33:00;;;;;;;5.53;1.40;;;;;;;;;;4921382;29;20066;-72
2022/06/14 08:35:32;;;;;;;5.22;1.50;;;;;;;;;;4929730;29;20502;-72
2022/06/14 08:38:01;;;;;;;7.57;1.40;;;;;;;;;;4931829;29;20066;-72
2022/06/14 08:40:38;;;;;;;4.60;1.63;;;;;;;;;;4924895;29;20121;-72
2022/06/14 08:43:09;;;;;;;4.97;1.30;;;;;;;;;;4926443;29;20443;-72
2022/06/14 08:45:39;;;;;;;5.03;1.35;;;;;;;;;;4920190;29;20062;-72
2022/06/14 08:48:08;;;;;;;5.95;1.48;;;;;;;;;;4922145;29;20132;-72
2022/06/14 08:50:45;;;;;;;6.55;1.52;;;;;;;;;;4927766;28;20070;-71
2022/06/14 08:53:18;;;;;;;4.95;1.33;;;;;;;;;;4923467;29;20067;-72
2022/06/14 08:56:10;;;;;;;4.93;1.40;;;;;;;;;;4922840;29;20525;-72
2022/06/14 08:58:58;;;;;;;6.53;1.58;;;;;;;;;;4930427;29;20055;-72
2022/06/14 09:01:33;;;;;;;5.93;1.30;;;;;;;;;;4906426;29;20118;-72
2022/06/14 09:04:09;;;;;;;4.53;1.60;;;;;;;;;;4927668;29;20047;-72
2022/06/14 09:06:57;;;;;;;6.43;1.75;;;;;;;;;;4925304;29;20078;-72
2022/06/14 09:09:52;;;;;;;4.45;1.40;;;;;;;;;;4931640;29;20055;-72
2022/06/14 09:12:34;;;;;;;5.88;1.40;;;;;;;;;;4882615;29;20055;-72
2022/06/14 09:15:16;;;;;;;4.82;1.23;;;;;;;;;;4908580;29;20503;-72
2022/06/14 09:18:02;;;;;;;5.63;1.48;;;;;;;;;;4930309;28;20055;-72
2022/06/14 09:20:35;;;;;;;3.63;1.23;;;;;;;;;;4927074;29;20070;-72
2022/06/14 09:23:08;;;;;;;4.57;1.33;;;;;;;;;;4930062;29;20058;-72
2022/06/14 09:25:35;;;;;;;;;;;;;;;;;;4927657;29;20055;-72
2022/06/14 09:28:20;;;;;;;3.75;1.05;;;;;;;;;;4925250;29;20263;-72
2022/06/14 09:31:05;;;;;;;3.70;1.20;;;;;;;;;;4922098;29;20126;-72
2022/06/14 09:33:50;;;;;;;4.30;1.15;;;;;;;;;;4923119;29;20059;-72
2022/06/14 09:36:36;;;;;;;4.78;1.70;;;;;;;;;;4915068;29;20087;-72
2022/06/14 09:39:15;;;;;;;5.63;1.50;;;;;;;;;;4879984;29;20055;-72
2022/06/14 09:42:03;;;;;;;4.20;1.27;;;;;;;;;;4921632;29;20477;-72
2022/06/14 09:44:51;;;;;;;6.43;1.55;;;;;;;;;;4932797;29;20421;-72
2022/06/14 09:47:24;;;;;;;5.80;1.60;;;;;;;;;;4899544;29;20058;-72
2022/06/14 09:50:09;;;;;;;7.22;1.50;;;;;;;;;;4930221;29;20051;-72
2022/06/14 09:52:51;;;;;;;3.33;1.30;;;;;;;;;;4930077;29;20059;-72
2022/06/14 09:55:36;;;;;;;9.68;1.55;;;;;;;;;;4928345;29;20048;-72
2022/06/14 09:58:18;;;;;;;6.20;1.42;;;;;;;;;;4925027;28;20055;-72
2022/06/14 10:00:49;;;;;;;6.05;1.20;;;;;;;;;;4931581;29;20058;-72
2022/06/14 10:03:37;;;;;;;6.05;1.25;;;;;;;;;;4931119;28;20047;-71
2022/06/14 10:06:19;;;;;;;6.72;1.73;;;;;;;;;;4924754;29;20059;-72
2022/06/14 10:08:56;;;;;;;8.05;1.65;;;;;;;;;;4932121;29;20055;-72
2022/06/14 10:11:30;;;;;;;7.32;1.60;;;;;;;;;;4933330;28;20059;-72
2022/06/14 10:14:21;;;;;;;6.50;1.50;;;;;;;;;;4931838;29;20055;-72
2022/06/14 10:17:03;;;;;;;4.47;1.52;;;;;;;;;;4908892;29;20050;-72
2022/06/14 10:19:43;;;;;;;7.32;1.80;;;;;;;;;;4929788;29;20055;-72
2022/06/14 10:22:17;;;;;;;6.40;1.40;;;;;;;;;;4931619;29;20059;-72
2022/06/14 10:24:48;;;;;;;8.65;2.25;;;;;;;;;;4933168;29;20055;-71
2022/06/14 10:30:17;;;;;;;6.03;1.65;;;;;;;;;;4927845;28;20105;-72
2022/06/14 10:33:02;;;;;;;7.55;1.40;;;;;;;;;;4925521;29;20059;-72
2022/06/14 10:35:33;;;;;;;7.45;1.60;;;;;;;;;;4929791;29;20074;-72
2022/06/14 10:38:11;;;;;;;6.53;1.50;;;;;;;;;;4931615;29;20117;-72
2022/06/14 10:40:42;;;;;;;6.82;1.23;;;;;;;;;;4931009;29;20058;-72
2022/06/14 10:43:13;;;;;;;4.57;1.60;;;;;;;;;;4932439;29;20462;-72
2022/06/14 10:45:44;;;;;;;4.95;1.70;;;;;;;;;;4927236;29;20093;-72
2022/06/14 10:48:20;;;;;;;8.43;1.95;;;;;;;;;;4935536;28;20055;-72
2022/06/14 10:50:52;;;;;;;8.88;1.60;;;;;;;;;;4932062;28;20063;-72
2022/06/14 10:53:25;;;;;;;8.85;1.90;;;;;;;;;;4927711;28;20467;-72
2022/06/14 10:56:08;;;;;;;5.90;1.60;;;;;;;;;;4922999;29;20047;-72
2022/06/14 10:58:59;;;;;;;7.85;1.50;;;;;;;;;;4923893;29;20122;-72
2022/06/14 11:01:35;;;;;;;4.57;1.70;;;;;;;;;;4922465;29;20098;-72
2022/06/14 11:04:06;;;;;;;6.30;1.60;;;;;;;;;;4922461;29;20058;-72
2022/06/14 11:06:44;;;;;;;8.73;1.73;;;;;;;;;;4921551;28;20146;-72
2022/06/14 11:09:18;;;;;;;5.70;1.60;;;;;;;;;;4922805;29;20075;-72
2022/06/14 11:11:52;;;;;;;7.43;1.95;;;;;;;;;;4917811;29;20055;-72
2022/06/14 11:14:25;;;;;;;9.18;2.15;;;;;;;;;;4922200;28;20490;-72
2022/06/14 11:17:04;;;;;;;8.67;1.70;;;;;;;;;;4919829;28;20055;-72
2022/06/14 11:19:45;;;;;;;4.70;1.35;;;;;;;;;;4922283;29;20075;-72
2022/06/14 11:22:17;;;;;;;6.72;1.42;;;;;;;;;;4919970;29;20063;-72
2022/06/14 11:24:47;;;;;;;6.88;1.50;;;;;;;;;;4918567;29;20503;-72
2022/06/14 11:27:23;;;;;;;5.68;1.60;;;;;;;;;;4921181;29;20157;-72
2022/06/14 11:29:54;;;;;;;8.80;2.15;;;;;;;;;;4920093;28;20047;-72
2022/06/14 11:32:27;;;;;;;5.63;1.92;;;;;;;;;;4917655;29;20059;-72
2022/06/14 11:35:02;;;;;;;5.87;1.60;;;;;;;;;;4922008;29;20063;-72
2022/06/14 11:37:37;;;;;;;5.30;1.73;;;;;;;;;;4920208;29;20058;-72
2022/06/14 11:40:08;;;;;;;4.00;1.48;;;;;;;;;;4919895;29;20118;-72
2022/06/14 11:42:39;;;;;;;8.50;1.60;;;;;;;;;;4920357;29;20047;-72
2022/06/14 11:45:21;;;;;;;6.97;1.77;;;;;;;;;;4920382;29;20529;-72
2022/06/14 11:47:52;;;;;;;10.50;2.13;;;;;;;;;;4920676;29;20106;-72
2022/06/14 11:50:23;;;;;;;6.07;1.90;;;;;;;;;;4920447;29;20420;-72
2022/06/14 11:53:01;;;;;;;4.70;1.75;;;;;;;;;;4923106;29;20055;-73
2022/06/14 11:55:31;;;;;;;5.70;1.75;;;;;;;;;;4922364;29;20047;-72
2022/06/14 11:58:07;;;;;;;5.03;1.55;;;;;;;;;;4920423;29;20139;-72
2022/06/14 12:00:39;;;;;;;5.25;1.88;;;;;;;;;;4922854;29;20082;-72
2022/06/14 12:03:14;;;;;;;7.95;1.80;;;;;;;;;;4935621;28;20589;-72
2022/06/14 12:05:45;;;;;;;5.07;1.73;;;;;;;;;;4923875;29;20059;-72
2022/06/14 12:08:22;;;;;;;7.32;2.00;;;;;;;;;;4921586;29;20055;-73
2022/06/14 12:10:51;;;;;;;5.85;1.88;;;;;;;;;;4924238;28;20135;-72
2022/06/14 12:13:37;;;;;;;6.03;1.67;;;;;;;;;;4924867;29;20126;-72
2022/06/14 12:16:08;;;;;;;6.05;1.83;;;;;;;;;;4923862;29;20101;-72
2022/06/14 12:18:38;;;;;;;6.45;2.13;;;;;;;;;;4926694;29;20070;-73
2022/06/14 12:21:14;;;;;;;5.28;1.90;;;;;;;;;;4926988;28;20051;-73
2022/06/14 12:23:43;;;;;;;8.00;1.88;;;;;;;;;;4927155;29;20066;-72
2022/06/14 12:29:02;;;;;;;5.43;1.98;;;;;;;;;;4927502;29;20050;-73
2022/06/14 12:31:31;;;;;;;6.85;2.25;;;;;;;;;;4927132;28;20562;-73
2022/06/14 12:34:02;;;;;;;6.55;1.90;;;;;;;;;;4925252;29;20066;-73
2022/06/14 12:36:34;;;;;;;7.57;2.50;;;;;;;;;;4927533;29;20058;-73
2022/06/14 12:39:04;;;;;;;5.75;2.30;;;;;;;;;;4923156;29;20055;-73
2022/06/14 12:41:34;;;;;;;5.57;2.40;;;;;;;;;;4923067;29;20051;-73
2022/06/14 12:44:19;;;;;;;7.78;2.50;;;;;;;;;;4925343;29;20055;-73
2022/06/14 12:46:48;;;;;;;5.88;2.45;;;;;;;;;;4926607;28;20800;-72
2022/06/14 12:49:20;;;;;;;5.15;1.90;;;;;;;;;;4923226;29;20055;-72
2022/06/14 12:51:50;;;;;;;5.70;2.13;;;;;;;;;;4924335;29;20055;-72
2022/06/14 12:54:19;;;;;;;5.78;2.00;;;;;;;;;;4926743;29;20549;-73
2022/06/14 12:56:51;;;;;;;7.43;2.20;;;;;;;;;;4927948;29;20059;-73
2022/06/14 12:59:24;;;;;;;6.40;2.00;;;;;;;;;;4925630;29;20054;-73
2022/06/14 13:01:54;;;;;;;6.00;2.20;;;;;;;;;;4925861;29;20061;-72
2022/06/14 13:04:26;;;;;;;8.25;2.20;;;;;;;;;;4942124;28;20059;-72
2022/06/14 13:06:56;;;;;;;8.38;2.72;;;;;;;;;;4925974;28;20055;-72
2022/06/14 13:09:30;;;;;;;10.45;3.05;;;;;;;;;;4925301;28;20066;-73
2022/06/14 13:12:04;;;;;;;5.68;2.58;;;;;;;;;;4924260;29;20137;-72
2022/06/14 13:14:32;;;;;;;6.78;2.40;;;;;;;;;;4924084;28;20055;-72
2022/06/14 13:17:08;;;;;;;5.40;2.00;;;;;;;;;;4926192;29;20054;-72
2022/06/14 13:19:40;;;;;;;6.47;2.00;;;;;;;;;;4925636;29;20125;-72
2022/06/14 13:22:18;;;;;;;6.03;1.88;;;;;;;;;;4924672;29;20589;-72
2022/06/14 13:24:52;;;;;;;7.63;2.20;;;;;;;;;;4925170;29;20126;-73
2022/06/14 13:27:23;;;;;;;6.53;2.38;;;;;;;;;;4925473;29;20047;-73
2022/06/14 13:29:55;;;;;;;4.82;2.25;;;;;;;;;;4925549;29;20059;-72
2022/06/14 13:32:32;;;;;;;4.22;2.08;;;;;;;;;;4920399;29;20105;-72
2022/06/14 13:35:04;;;;;;;4.82;1.90;;;;;;;;;;4925154;29;20059;-72
2022/06/14 13:37:39;;;;;;;3.58;1.70;;;;;;;;;;4924989;28;20105;-73
2022/06/14 13:40:10;;;;;;;5.78;2.08;;;;;;;;;;4925223;29;20140;-73
2022/06/14 13:42:39;;;;;;;6.38;2.20;;;;;;;;;;4921267;29;20086;-74
2022/06/14 13:45:10;;;;;;;4.88;2.30;;;;;;;;;;4921339;29;20070;-74
2022/06/14 13:47:41;;;;;;;4.47;2.03;;;;;;;;;;4922252;29;20059;-74
2022/06/14 13:50:13;;;;;;;6.05;2.72;;;;;;;;;;4920120;29;20055;-74
2022/06/14 13:52:40;;;;;;;;;;;;;;;;;;4927625;29;20430;-74
2022/06/14 13:55:16;;;;;;;4.97;2.15;;;;;;;;;;4929848;29;19926;-74
2022/06/14 13:57:47;;;;;;;6.78;2.38;;;;;;;;;;4933956;29;20090;-74
2022/06/14 14:00:19;;;;;;;6.93;2.20;;;;;;;;;;4927017;28;20058;-73
2022/06/14 14:02:49;;;;;;;8.75;2.22;;;;;;;;;;4923425;29;20047;-73
2022/06/14 14:05:20;;;;;;;6.18;2.05;;;;;;;;;;4919428;28;20044;-73
2022/06/14 14:07:50;;;;;;;5.00;2.05;;;;;;;;;;4922636;29;20051;-73
2022/06/14 14:10:29;;;;;;;8.15;2.50;;;;;;;;;;4924144;29;20241;-73
2022/06/14 14:13:01;;;;;;;5.13;2.20;;;;;;;;;;4923116;29;20074;-72
2022/06/14 14:15:34;;;;;;;4.90;2.13;;;;;;;;;;4920492;29;20062;-72
2022/06/14 14:18:03;;;;;;;6.60;1.92;;;;;;;;;;4923061;29;20059;-73
2022/06/14 14:20:42;;;;;;;6.40;2.33;;;;;;;;;;4922188;29;20055;-72
2022/06/14 14:23:16;;;;;;;7.75;2.45;;;;;;;;;;4920839;29;20068;-71
2022/06/14 14:25:47;;;;;;;5.45;2.40;;;;;;;;;;4923196;29;20062;-71
2022/06/14 14:28:18;;;;;;;7.40;2.45;;;;;;;;;;4919857;28;20081;-70
2022/06/14 14:30:56;;;;;;;6.35;2.65;;;;;;;;;;4923959;29;20054;-70
2022/06/14 14:33:29;;;;;;;5.85;2.63;;;;;;;;;;4915268;29;20431;-71
2022/06/14 14:36:00;;;;;;;5.53;2.38;;;;;;;;;;4905979;29;20410;-72
2022/06/14 14:38:29;;;;;;;4.93;2.45;;;;;;;;;;4905441;29;20655;-72
2022/06/14 14:43:46;;;;;;;6.55;2.17;;;;;;;;;;4905511;29;20509;-72
2022/06/14 14:46:15;;;;;;;5.57;2.40;;;;;;;;;;4904120;29;20486;-72
2022/06/14 14:48:46;;;;;;;9.15;3.20;;;;;;;;;;4906191;29;20165;-72
2022/06/14 14:51:23;;;;;;;10.52;2.63;;;;;;;;;;4922447;29;20058;-70
2022/06/14 14:53:58;;;;;;;6.25;2.60;;;;;;;;;;4906211;29;20110;-70
2022/06/14 14:56:28;;;;;;;5.22;2.42;;;;;;;;;;4903101;29;20078;-71
2022/06/14 14:58:59;;;;;;;5.78;2.67;;;;;;;;;;4903845;29;20064;-71
2022/06/14 15:07:09;;;;;;;5.38;2.28;;;;;;;;;;4905365;29;20142;-70
2022/06/14 15:09:38;;;;;;;6.38;2.53;;;;;;;;;;4907550;29;20070;-70
2022/06/14 15:12:16;;;;;;;7.53;2.40;;;;;;;;;;4906383;29;20062;-70
2022/06/14 15:14:43;;;;;;;6.65;2.63;;;;;;;;;;4920796;29;20585;-70
2022/06/14 15:20:11;;;;;;;7.53;2.45;;;;;;;;;;4842609;29;20608;-70
2022/06/14 15:22:44;;;;;;;5.38;2.10;;;;;;;;;;4890567;29;20056;-70
2022/06/14 15:25:11;;;;;;;;;;;;;;;;;;4904260;29;20112;-70
2022/06/14 15:27:43;;;;;;;6.47;1.95;;;;;;;;;;4922409;29;19934;-70
2022/06/14 15:30:11;;;;;;;4.68;2.03;;;;;;;;;;4904739;29;20071;-70
2022/06/14 15:32:39;;;;;;;4.75;1.80;;;;;;;;;;4905246;29;20055;-70